Hauptseite
METAR-TAF:

METAR-TAF

Flughäfen :

Novara, Italien

Militärflugplatz Cameri

Breite: 45-31N, Länge: 008-40E, Höhe: 178 m

METAR: fehlend

Zeit: 02:35 (01:35 UTC)

Prognose

Neuester Wetterbericht von vor 8 Stunden und 35 Minuten, um 17:00 UTC
Gültige Prognose vom 23 um 18 UTC bis 24 um 03 UTC
Wind 5 kt aus unterschiedlichen Richtungen
Sichtweite: 8000 m
Leicht bewölkt in der Höhe von 1000 ft
Durchbrochene Bewölkung in der Höhe von 2000 ft
Zeitweise
vom 23 um 18 UTC bis 24 um 03 UTC
Sichtweite: 5000 m
Regen, feuchter Dunst

TAF: LIMN 231700Z 2318/2403 VRB05KT 8000 FEW010 BKN020 TEMPO 2318/2403 5000 RA BR

Wetterbeobachtungen und Prognosen von mehr als 4000 Flughäfen (METAR und TAF Bericht).

Die verfügbaren Stationen werden durch gelbe und rote Markierungen auf der Karte dargestellt.

Führen Sie die Maus auf sie, um den Namen der Station zu sehen.

Darauf klicken, um die Beobachtung von Wetterbeobachtungen und Prognosen zu sehen.

Um die Karte zu ändern : klicken Sie auf den grünen Tasten mit einem schwarzen Kreuz Zum Vergrößern, auf den grünen Button mit einem Gedankenstrich zu verkleinern, oder auf die grünen Pfeile für benachbarte Karten.


METAR-TAF: